sensor_id;sensor_type;location;lat;lon;timestamp;pressure;altitude;pressure_sealevel;temperature;humidity
6038;BME280;3047;42.600;23.470;2022-10-16T00:00:33;93675.84;;;10.66;100.00
6038;BME280;3047;42.600;23.470;2022-10-16T00:03:00;93675.91;;;10.63;100.00
6038;BME280;3047;42.600;23.470;2022-10-16T00:05:27;93678.38;;;10.66;100.00
6038;BME280;3047;42.600;23.470;2022-10-16T00:07:54;93680.38;;;10.49;100.00
6038;BME280;3047;42.600;23.470;2022-10-16T00:10:21;93670.25;;;10.50;100.00
6038;BME280;3047;42.600;23.470;2022-10-16T00:12:48;93686.44;;;10.42;100.00
6038;BME280;3047;42.600;23.470;2022-10-16T00:15:16;93694.19;;;10.31;100.00
6038;BME280;3047;42.600;23.470;2022-10-16T00:17:43;93672.25;;;10.33;100.00
6038;BME280;3047;42.600;23.470;2022-10-16T00:20:09;93681.38;;;10.42;100.00
6038;BME280;3047;42.600;23.470;2022-10-16T00:22:36;93678.81;;;10.43;100.00
6038;BME280;3047;42.600;23.470;2022-10-16T00:25:03;93687.44;;;10.31;100.00
6038;BME280;3047;42.600;23.470;2022-10-16T00:27:30;93695.97;;;10.26;100.00
6038;BME280;3047;42.600;23.470;2022-10-16T00:29:57;93691.06;;;10.15;100.00
6038;BME280;3047;42.600;23.470;2022-10-16T00:32:25;93690.19;;;10.16;100.00
6038;BME280;3047;42.600;23.470;2022-10-16T00:34:52;93706.31;;;10.07;100.00
6038;BME280;3047;42.600;23.470;2022-10-16T00:37:19;93693.75;;;10.06;100.00
6038;BME280;3047;42.600;23.470;2022-10-16T00:39:46;93695.25;;;10.16;100.00
6038;BME280;3047;42.600;23.470;2022-10-16T00:42:15;93691.81;;;10.20;100.00
6038;BME280;3047;42.600;23.470;2022-10-16T00:44:47;93687.75;;;10.13;100.00
6038;BME280;3047;42.600;23.470;2022-10-16T00:47:19;93701.16;;;10.15;100.00
6038;BME280;3047;42.600;23.470;2022-10-16T00:49:50;93708.91;;;10.04;100.00
6038;BME280;3047;42.600;23.470;2022-10-16T00:52:18;93702.84;;;10.14;100.00
6038;BME280;3047;42.600;23.470;2022-10-16T00:54:46;93678.75;;;9.97;100.00
6038;BME280;3047;42.600;23.470;2022-10-16T00:57:13;93701.19;;;10.13;100.00
6038;BME280;3047;42.600;23.470;2022-10-16T00:59:41;93703.72;;;10.13;100.00
6038;BME280;3047;42.600;23.470;2022-10-16T01:02:10;93682.94;;;9.98;100.00
6038;BME280;3047;42.600;23.470;2022-10-16T01:04:40;93709.47;;;10.20;100.00
6038;BME280;3047;42.600;23.470;2022-10-16T01:07:14;93706.94;;;10.20;100.00
6038;BME280;3047;42.600;23.470;2022-10-16T01:09:50;93707.16;;;10.08;100.00
6038;BME280;3047;42.600;23.470;2022-10-16T01:12:23;93705.47;;;10.10;100.00
6038;BME280;3047;42.600;23.470;2022-10-16T01:14:54;93713.00;;;10.11;100.00
6038;BME280;3047;42.600;23.470;2022-10-16T01:17:26;93715.50;;;10.11;100.00
6038;BME280;3047;42.600;23.470;2022-10-16T01:20:05;93673.13;;;9.81;100.00
6038;BME280;3047;42.600;23.470;2022-10-16T01:22:39;93721.47;;;10.07;100.00
6038;BME280;3047;42.600;23.470;2022-10-16T01:25:14;93714.84;;;10.00;100.00
6038;BME280;3047;42.600;23.470;2022-10-16T01:27:46;93707.53;;;9.85;100.00
6038;BME280;3047;42.600;23.470;2022-10-16T01:30:17;93699.16;;;9.84;100.00
6038;BME280;3047;42.600;23.470;2022-10-16T01:32:49;93699.03;;;9.90;100.00
6038;BME280;3047;42.600;23.470;2022-10-16T01:35:21;93694.44;;;10.12;100.00
6038;BME280;3047;42.600;23.470;2022-10-16T01:37:51;93692.31;;;10.40;99.47
6038;BME280;3047;42.600;23.470;2022-10-16T01:40:20;93696.53;;;10.42;99.19
6038;BME280;3047;42.600;23.470;2022-10-16T01:42:54;93700.06;;;10.31;98.80
6038;BME280;3047;42.600;23.470;2022-10-16T01:45:23;93697.44;;;10.37;98.38
6038;BME280;3047;42.600;23.470;2022-10-16T01:47:51;93699.06;;;10.40;98.20
6038;BME280;3047;42.600;23.470;2022-10-16T01:50:20;93712.38;;;10.48;96.88
6038;BME280;3047;42.600;23.470;2022-10-16T01:52:50;93702.13;;;10.57;96.52
6038;BME280;3047;42.600;23.470;2022-10-16T01:55:22;93697.03;;;10.59;96.38
6038;BME280;3047;42.600;23.470;2022-10-16T01:57:53;93706.28;;;10.60;95.83
6038;BME280;3047;42.600;23.470;2022-10-16T02:00:22;93694.88;;;10.39;97.01
6038;BME280;3047;42.600;23.470;2022-10-16T02:02:53;93701.06;;;10.21;97.43
6038;BME280;3047;42.600;23.470;2022-10-16T02:05:23;93700.97;;;10.27;97.98
6038;BME280;3047;42.600;23.470;2022-10-16T02:07:52;93701.72;;;10.34;97.48
6038;BME280;3047;42.600;23.470;2022-10-16T02:10:19;93702.50;;;10.37;96.66
6038;BME280;3047;42.600;23.470;2022-10-16T02:12:49;93674.03;;;10.29;95.84
6038;BME280;3047;42.600;23.470;2022-10-16T02:15:18;93698.84;;;10.52;96.24
6038;BME280;3047;42.600;23.470;2022-10-16T02:17:45;93716.38;;;10.61;94.99
6038;BME280;3047;42.600;23.470;2022-10-16T02:20:12;93720.47;;;10.67;95.01
6038;BME280;3047;42.600;23.470;2022-10-16T02:22:41;93725.56;;;10.66;94.71
6038;BME280;3047;42.600;23.470;2022-10-16T02:25:11;93722.84;;;10.73;93.81
6038;BME280;3047;42.600;23.470;2022-10-16T02:27:45;93733.13;;;10.66;94.28
6038;BME280;3047;42.600;23.470;2022-10-16T02:30:21;93723.03;;;10.64;95.34
6038;BME280;3047;42.600;23.470;2022-10-16T02:32:51;93735.66;;;10.64;95.82
6038;BME280;3047;42.600;23.470;2022-10-16T02:35:21;93731.59;;;10.57;95.52
6038;BME280;3047;42.600;23.470;2022-10-16T02:37:50;93732.72;;;10.42;97.36
6038;BME280;3047;42.600;23.470;2022-10-16T02:40:18;93735.31;;;10.37;97.41
6038;BME280;3047;42.600;23.470;2022-10-16T02:42:44;93736.19;;;10.35;97.02
6038;BME280;3047;42.600;23.470;2022-10-16T02:45:11;93725.41;;;10.27;97.57
6038;BME280;3047;42.600;23.470;2022-10-16T02:47:39;93741.50;;;10.16;98.02
6038;BME280;3047;42.600;23.470;2022-10-16T02:50:06;93734.78;;;10.15;97.52
6038;BME280;3047;42.600;23.470;2022-10-16T02:52:33;93735.75;;;10.10;97.55
6038;BME280;3047;42.600;23.470;2022-10-16T02:55:00;93734.91;;;10.08;96.84
6038;BME280;3047;42.600;23.470;2022-10-16T02:57:27;93730.94;;;9.95;97.30
6038;BME280;3047;42.600;23.470;2022-10-16T02:59:54;93749.34;;;10.00;96.89
6038;BME280;3047;42.600;23.470;2022-10-16T03:02:21;93746.91;;;9.95;97.28
6038;BME280;3047;42.600;23.470;2022-10-16T03:04:49;93747.19;;;9.75;97.69
6038;BME280;3047;42.600;23.470;2022-10-16T03:07:16;93749.06;;;9.62;100.00
6038;BME280;3047;42.600;23.470;2022-10-16T03:09:42;93755.88;;;9.56;100.00
6038;BME280;3047;42.600;23.470;2022-10-16T03:12:09;93744.94;;;9.58;100.00
6038;BME280;3047;42.600;23.470;2022-10-16T03:14:37;93743.41;;;9.48;100.00
6038;BME280;3047;42.600;23.470;2022-10-16T03:17:05;93749.28;;;9.47;100.00
6038;BME280;3047;42.600;23.470;2022-10-16T03:19:32;93748.47;;;9.44;100.00
6038;BME280;3047;42.600;23.470;2022-10-16T03:22:00;93749.25;;;9.50;100.00
6038;BME280;3047;42.600;23.470;2022-10-16T03:24:26;93755.34;;;9.34;100.00
6038;BME280;3047;42.600;23.470;2022-10-16T03:26:53;93752.94;;;9.26;100.00
6038;BME280;3047;42.600;23.470;2022-10-16T03:29:20;93751.16;;;9.31;100.00
6038;BME280;3047;42.600;23.470;2022-10-16T03:31:47;93745.28;;;9.32;100.00
6038;BME280;3047;42.600;23.470;2022-10-16T03:34:14;93760.38;;;9.34;100.00
6038;BME280;3047;42.600;23.470;2022-10-16T03:36:41;93752.78;;;9.35;100.00
6038;BME280;3047;42.600;23.470;2022-10-16T03:39:09;93761.38;;;9.22;100.00
6038;BME280;3047;42.600;23.470;2022-10-16T03:41:36;93760.59;;;9.20;100.00
6038;BME280;3047;42.600;23.470;2022-10-16T03:44:03;93759.75;;;9.20;100.00
6038;BME280;3047;42.600;23.470;2022-10-16T03:46:29;93749.56;;;9.26;100.00
6038;BME280;3047;42.600;23.470;2022-10-16T03:48:56;93748.72;;;9.27;100.00
6038;BME280;3047;42.600;23.470;2022-10-16T03:51:23;93751.31;;;9.19;100.00
6038;BME280;3047;42.600;23.470;2022-10-16T03:53:50;93744.72;;;9.12;100.00
6038;BME280;3047;42.600;23.470;2022-10-16T03:56:18;93743.84;;;9.13;100.00
6038;BME280;3047;42.600;23.470;2022-10-16T03:58:45;93745.50;;;9.17;100.00
6038;BME280;3047;42.600;23.470;2022-10-16T04:01:11;93744.63;;;9.20;100.00
6038;BME280;3047;42.600;23.470;2022-10-16T04:03:38;93747.22;;;9.13;100.00
6038;BME280;3047;42.600;23.470;2022-10-16T04:06:05;93739.59;;;9.18;100.00
6038;BME280;3047;42.600;23.470;2022-10-16T04:08:32;93743.84;;;9.13;100.00
6038;BME280;3047;42.600;23.470;2022-10-16T04:11:00;93747.16;;;9.18;100.00
6038;BME280;3047;42.600;23.470;2022-10-16T04:13:28;93754.63;;;9.26;100.00
6038;BME280;3047;42.600;23.470;2022-10-16T04:15:55;93753.00;;;9.22;100.00
6038;BME280;3047;42.600;23.470;2022-10-16T04:18:21;93754.69;;;9.21;100.00
6038;BME280;3047;42.600;23.470;2022-10-16T04:20:48;93745.47;;;9.20;100.00
6038;BME280;3047;42.600;23.470;2022-10-16T04:23:15;93746.28;;;9.21;100.00
6038;BME280;3047;42.600;23.470;2022-10-16T04:25:41;93747.91;;;9.25;100.00
6038;BME280;3047;42.600;23.470;2022-10-16T04:28:08;93748.78;;;9.24;100.00
6038;BME280;3047;42.600;23.470;2022-10-16T04:30:37;93736.22;;;9.19;100.00
6038;BME280;3047;42.600;23.470;2022-10-16T04:33:04;93751.31;;;9.19;100.00
6038;BME280;3047;42.600;23.470;2022-10-16T04:35:31;93733.84;;;9.07;100.00
6038;BME280;3047;42.600;23.470;2022-10-16T04:37:58;93758.00;;;9.23;100.00
6038;BME280;3047;42.600;23.470;2022-10-16T04:40:25;93756.25;;;9.30;100.00
6038;BME280;3047;42.600;23.470;2022-10-16T04:42:51;93759.59;;;9.32;100.00
6038;BME280;3047;42.600;23.470;2022-10-16T04:45:18;93766.28;;;9.33;100.00
6038;BME280;3047;42.600;23.470;2022-10-16T04:47:46;93769.63;;;9.36;100.00
6038;BME280;3047;42.600;23.470;2022-10-16T04:50:13;93773.75;;;9.40;100.00
6038;BME280;3047;42.600;23.470;2022-10-16T04:52:40;93777.94;;;9.41;100.00
6038;BME280;3047;42.600;23.470;2022-10-16T04:55:07;93760.28;;;9.41;100.00
6038;BME280;3047;42.600;23.470;2022-10-16T04:57:34;93780.53;;;9.37;100.00
6038;BME280;3047;42.600;23.470;2022-10-16T05:00:00;93782.13;;;9.43;100.00
6038;BME280;3047;42.600;23.470;2022-10-16T05:02:28;93782.06;;;9.47;100.00
6038;BME280;3047;42.600;23.470;2022-10-16T05:04:56;93786.31;;;9.44;100.00
6038;BME280;3047;42.600;23.470;2022-10-16T05:07:23;93785.56;;;9.37;100.00
6038;BME280;3047;42.600;23.470;2022-10-16T05:09:49;93783.81;;;9.42;100.00
6038;BME280;3047;42.600;23.470;2022-10-16T05:12:16;93794.75;;;9.41;100.00
6038;BME280;3047;42.600;23.470;2022-10-16T05:14:43;93802.13;;;9.56;100.00
6038;BME280;3047;42.600;23.470;2022-10-16T05:17:10;93800.47;;;9.54;100.00
6038;BME280;3047;42.600;23.470;2022-10-16T05:19:37;93793.69;;;9.59;100.00
6038;BME280;3047;42.600;23.470;2022-10-16T05:22:05;93800.34;;;9.63;100.00
6038;BME280;3047;42.600;23.470;2022-10-16T05:24:31;93805.31;;;9.69;100.00
6038;BME280;3047;42.600;23.470;2022-10-16T05:26:58;93804.38;;;9.76;100.00
6038;BME280;3047;42.600;23.470;2022-10-16T05:29:25;93801.81;;;9.79;100.00
6038;BME280;3047;42.600;23.470;2022-10-16T05:31:52;93811.81;;;9.85;100.00
6038;BME280;3047;42.600;23.470;2022-10-16T05:34:19;93818.56;;;9.83;100.00
6038;BME280;3047;42.600;23.470;2022-10-16T05:36:46;93820.25;;;9.84;100.00
6038;BME280;3047;42.600;23.470;2022-10-16T05:39:15;93803.41;;;9.86;100.00
6038;BME280;3047;42.600;23.470;2022-10-16T05:41:42;93815.94;;;9.93;100.00
6038;BME280;3047;42.600;23.470;2022-10-16T05:44:09;93812.44;;;10.00;100.00
6038;BME280;3047;42.600;23.470;2022-10-16T05:46:36;93812.38;;;10.06;100.00
6038;BME280;3047;42.600;23.470;2022-10-16T05:49:02;93803.16;;;10.05;100.00
6038;BME280;3047;42.600;23.470;2022-10-16T05:51:29;93809.66;;;10.18;100.00
6038;BME280;3047;42.600;23.470;2022-10-16T05:53:56;93821.31;;;10.28;100.00
6038;BME280;3047;42.600;23.470;2022-10-16T05:56:24;93796.22;;;10.16;99.44
6038;BME280;3047;42.600;23.470;2022-10-16T05:58:51;93823.66;;;10.39;99.56
6038;BME280;3047;42.600;23.470;2022-10-16T06:01:18;93824.25;;;10.55;99.71
6038;BME280;3047;42.600;23.470;2022-10-16T06:03:46;93830.88;;;10.62;98.55
6038;BME280;3047;42.600;23.470;2022-10-16T06:06:14;93833.28;;;10.68;98.90
6038;BME280;3047;42.600;23.470;2022-10-16T06:08:42;93823.94;;;10.75;98.82
6038;BME280;3047;42.600;23.470;2022-10-16T06:11:13;93833.91;;;10.82;98.47
6038;BME280;3047;42.600;23.470;2022-10-16T06:13:42;93840.41;;;10.96;98.27
6038;BME280;3047;42.600;23.470;2022-10-16T06:16:11;93852.00;;;11.06;98.24
6038;BME280;3047;42.600;23.470;2022-10-16T06:18:39;93857.66;;;11.20;97.90
6038;BME280;3047;42.600;23.470;2022-10-16T06:21:07;93850.25;;;11.11;97.96
6038;BME280;3047;42.600;23.470;2022-10-16T06:23:34;93863.69;;;11.13;98.86
6038;BME280;3047;42.600;23.470;2022-10-16T06:26:05;93862.88;;;11.11;99.02
6038;BME280;3047;42.600;23.470;2022-10-16T06:28:32;93864.50;;;11.15;99.14
6038;BME280;3047;42.600;23.470;2022-10-16T06:31:00;93857.00;;;11.09;99.24
6038;BME280;3047;42.600;23.470;2022-10-16T06:33:27;93857.09;;;11.04;98.78
6038;BME280;3047;42.600;23.470;2022-10-16T06:35:54;93867.03;;;11.13;98.94
6038;BME280;3047;42.600;23.470;2022-10-16T06:38:26;93874.53;;;11.20;99.25
6038;BME280;3047;42.600;23.470;2022-10-16T06:40:53;93879.44;;;11.27;99.51
6038;BME280;3047;42.600;23.470;2022-10-16T06:43:20;93879.31;;;11.35;99.82
6038;BME280;3047;42.600;23.470;2022-10-16T06:45:50;93886.03;;;11.36;98.92
6038;BME280;3047;42.600;23.470;2022-10-16T06:48:19;93890.13;;;11.43;98.62
6038;BME280;3047;42.600;23.470;2022-10-16T06:50:55;93887.50;;;11.46;97.88
6038;BME280;3047;42.600;23.470;2022-10-16T06:53:22;93866.63;;;11.36;98.03
6038;BME280;3047;42.600;23.470;2022-10-16T06:55:49;93887.34;;;11.55;97.96
6038;BME280;3047;42.600;23.470;2022-10-16T06:58:15;93900.75;;;11.60;98.42
6038;BME280;3047;42.600;23.470;2022-10-16T07:00:42;93888.88;;;11.62;97.05
6038;BME280;3047;42.600;23.470;2022-10-16T07:03:09;93889.69;;;11.64;97.82
6038;BME280;3047;42.600;23.470;2022-10-16T07:05:38;93902.97;;;11.74;97.21
6038;BME280;3047;42.600;23.470;2022-10-16T07:08:05;93885.19;;;11.79;97.07
6038;BME280;3047;42.600;23.470;2022-10-16T07:10:32;93899.31;;;11.92;96.52
6038;BME280;3047;42.600;23.470;2022-10-16T07:12:59;93897.56;;;11.94;96.28
6038;BME280;3047;42.600;23.470;2022-10-16T07:15:26;93904.31;;;11.94;96.01
6038;BME280;3047;42.600;23.470;2022-10-16T07:17:53;93906.84;;;11.95;95.36
6038;BME280;3047;42.600;23.470;2022-10-16T07:20:20;93910.88;;;12.04;95.58
6038;BME280;3047;42.600;23.470;2022-10-16T07:22:48;93912.59;;;12.02;95.92
6038;BME280;3047;42.600;23.470;2022-10-16T07:25:15;93912.34;;;12.14;95.63
6038;BME280;3047;42.600;23.470;2022-10-16T07:27:41;93906.00;;;12.33;94.80
6038;BME280;3047;42.600;23.470;2022-10-16T07:30:09;93904.84;;;12.48;94.35
6038;BME280;3047;42.600;23.470;2022-10-16T07:32:36;93905.50;;;12.56;94.19
6038;BME280;3047;42.600;23.470;2022-10-16T07:35:03;93870.47;;;12.36;94.12
6038;BME280;3047;42.600;23.470;2022-10-16T07:37:30;93919.47;;;12.73;94.23
6038;BME280;3047;42.600;23.470;2022-10-16T07:39:58;93926.63;;;12.93;92.80
6038;BME280;3047;42.600;23.470;2022-10-16T07:42:25;93918.25;;;12.89;92.41
6038;BME280;3047;42.600;23.470;2022-10-16T07:44:53;93918.72;;;13.03;90.43
6038;BME280;3047;42.600;23.470;2022-10-16T07:47:20;93920.25;;;13.10;88.20
6038;BME280;3047;42.600;23.470;2022-10-16T07:49:47;93921.72;;;13.19;85.56
6038;BME280;3047;42.600;23.470;2022-10-16T07:52:13;93925.75;;;13.29;85.29
6038;BME280;3047;42.600;23.470;2022-10-16T07:54:40;93923.28;;;13.26;84.28
6038;BME280;3047;42.600;23.470;2022-10-16T07:57:08;93928.34;;;13.26;85.02
6038;BME280;3047;42.600;23.470;2022-10-16T07:59:35;93933.47;;;13.25;85.61
6038;BME280;3047;42.600;23.470;2022-10-16T08:02:02;93930.97;;;13.23;88.33
6038;BME280;3047;42.600;23.470;2022-10-16T08:04:28;93919.16;;;13.21;88.24
6038;BME280;3047;42.600;23.470;2022-10-16T08:06:55;93911.06;;;13.06;87.74
6038;BME280;3047;42.600;23.470;2022-10-16T08:09:22;93936.06;;;13.22;86.30
6038;BME280;3047;42.600;23.470;2022-10-16T08:11:49;93935.34;;;13.17;86.70
6038;BME280;3047;42.600;23.470;2022-10-16T08:14:18;93930.13;;;13.23;85.40
6038;BME280;3047;42.600;23.470;2022-10-16T08:16:45;93938.56;;;13.23;83.41
6038;BME280;3047;42.600;23.470;2022-10-16T08:19:11;93930.88;;;13.26;83.80
6038;BME280;3047;42.600;23.470;2022-10-16T08:21:38;93934.19;;;13.30;84.69
6038;BME280;3047;42.600;23.470;2022-10-16T08:24:05;93924.88;;;13.30;85.05
6038;BME280;3047;42.600;23.470;2022-10-16T08:26:31;93933.19;;;13.35;84.63
6038;BME280;3047;42.600;23.470;2022-10-16T08:28:58;93936.53;;;13.38;84.27
6038;BME280;3047;42.600;23.470;2022-10-16T08:31:26;93932.94;;;13.45;83.52
6038;BME280;3047;42.600;23.470;2022-10-16T08:33:53;93934.66;;;13.44;83.61
6038;BME280;3047;42.600;23.470;2022-10-16T08:36:20;93932.16;;;13.43;83.24
6038;BME280;3047;42.600;23.470;2022-10-16T08:38:48;93931.25;;;13.45;81.41
6038;BME280;3047;42.600;23.470;2022-10-16T08:41:29;93938.78;;;13.48;81.98
6038;BME280;3047;42.600;23.470;2022-10-16T08:44:19;93930.09;;;13.57;80.11
6038;BME280;3047;42.600;23.470;2022-10-16T08:46:54;93938.44;;;13.60;79.42
6038;BME280;3047;42.600;23.470;2022-10-16T08:49:23;93940.00;;;13.66;77.50
6038;BME280;3047;42.600;23.470;2022-10-16T08:51:50;93930.69;;;13.67;77.79
6038;BME280;3047;42.600;23.470;2022-10-16T08:54:27;93939.88;;;13.71;77.82
6038;BME280;3047;42.600;23.470;2022-10-16T08:56:56;93928.16;;;13.67;77.04
6038;BME280;3047;42.600;23.470;2022-10-16T08:59:22;93944.78;;;13.77;76.35
6038;BME280;3047;42.600;23.470;2022-10-16T09:01:51;93949.91;;;13.75;76.34
6038;BME280;3047;42.600;23.470;2022-10-16T09:04:43;93940.38;;;13.83;76.57
6038;BME280;3047;42.600;23.470;2022-10-16T09:07:18;93942.97;;;13.82;75.52
6038;BME280;3047;42.600;23.470;2022-10-16T09:10:00;93945.34;;;13.88;75.82
6038;BME280;3047;42.600;23.470;2022-10-16T09:12:36;93932.72;;;13.85;77.36
6038;BME280;3047;42.600;23.470;2022-10-16T09:15:15;93938.41;;;13.93;75.70
6038;BME280;3047;42.600;23.470;2022-10-16T09:17:50;93944.84;;;14.06;74.80
6038;BME280;3047;42.600;23.470;2022-10-16T09:20:33;93943.88;;;14.10;74.26
6038;BME280;3047;42.600;23.470;2022-10-16T09:23:14;93920.69;;;13.92;74.23
6038;BME280;3047;42.600;23.470;2022-10-16T09:25:46;93941.47;;;14.06;76.24
6038;BME280;3047;42.600;23.470;2022-10-16T09:28:14;93938.75;;;14.12;76.26
6038;BME280;3047;42.600;23.470;2022-10-16T09:30:41;93940.31;;;14.16;77.19
6038;BME280;3047;42.600;23.470;2022-10-16T09:33:11;93938.25;;;14.29;76.58
6038;BME280;3047;42.600;23.470;2022-10-16T09:35:40;93928.78;;;14.34;76.69
6038;BME280;3047;42.600;23.470;2022-10-16T09:38:09;93920.16;;;14.40;74.00
6038;BME280;3047;42.600;23.470;2022-10-16T09:40:47;93931.47;;;14.59;75.56
6038;BME280;3047;42.600;23.470;2022-10-16T09:43:20;93928.09;;;14.58;76.13
6038;BME280;3047;42.600;23.470;2022-10-16T09:45:56;93926.34;;;14.61;77.63
6038;BME280;3047;42.600;23.470;2022-10-16T09:48:27;93925.91;;;14.74;76.49
6038;BME280;3047;42.600;23.470;2022-10-16T09:50:59;93920.81;;;14.74;77.28
6038;BME280;3047;42.600;23.470;2022-10-16T09:53:38;93918.00;;;14.83;78.46
6038;BME280;3047;42.600;23.470;2022-10-16T09:56:06;93913.50;;;14.92;78.55
6038;BME280;3047;42.600;23.470;2022-10-16T09:58:33;93915.84;;;14.98;77.49
6038;BME280;3047;42.600;23.470;2022-10-16T10:01:00;93915.59;;;15.05;77.14
6038;BME280;3047;42.600;23.470;2022-10-16T10:03:37;93922.09;;;15.14;76.55
6038;BME280;3047;42.600;23.470;2022-10-16T10:06:14;93920.13;;;15.22;74.96
6038;BME280;3047;42.600;23.470;2022-10-16T10:08:54;93913.88;;;15.32;74.62
6038;BME280;3047;42.600;23.470;2022-10-16T10:11:39;93913.91;;;15.31;74.16
6038;BME280;3047;42.600;23.470;2022-10-16T10:14:15;93906.22;;;15.32;72.64
6038;BME280;3047;42.600;23.470;2022-10-16T10:16:43;93902.63;;;15.38;72.40
6038;BME280;3047;42.600;23.470;2022-10-16T10:19:14;93916.03;;;15.43;73.01
6038;BME280;3047;42.600;23.470;2022-10-16T10:21:41;93915.94;;;15.46;72.24
6038;BME280;3047;42.600;23.470;2022-10-16T10:24:11;93899.72;;;15.49;75.36
6038;BME280;3047;42.600;23.470;2022-10-16T10:26:38;93906.84;;;15.64;73.55
6038;BME280;3047;42.600;23.470;2022-10-16T10:29:13;93897.03;;;15.78;73.67
6038;BME280;3047;42.600;23.470;2022-10-16T10:31:48;93900.78;;;15.92;71.06
6038;BME280;3047;42.600;23.470;2022-10-16T10:34:34;93902.69;;;16.10;70.21
6038;BME280;3047;42.600;23.470;2022-10-16T10:37:16;93900.97;;;16.32;67.58
6038;BME280;3047;42.600;23.470;2022-10-16T10:39:50;93890.56;;;16.39;67.24
6038;BME280;3047;42.600;23.470;2022-10-16T10:42:25;93894.66;;;16.65;64.40
6038;BME280;3047;42.600;23.470;2022-10-16T10:45:16;93890.50;;;16.86;64.38
6038;BME280;3047;42.600;23.470;2022-10-16T10:47:51;93893.28;;;17.22;60.50
6038;BME280;3047;42.600;23.470;2022-10-16T10:50:26;93889.81;;;17.43;59.21
6038;BME280;3047;42.600;23.470;2022-10-16T10:53:00;93881.00;;;17.71;57.63
6038;BME280;3047;42.600;23.470;2022-10-16T10:55:39;93876.94;;;17.86;58.06
6038;BME280;3047;42.600;23.470;2022-10-16T10:58:32;93872.47;;;18.10;56.55
6038;BME280;3047;42.600;23.470;2022-10-16T11:01:05;93878.03;;;18.19;52.68
6038;BME280;3047;42.600;23.470;2022-10-16T11:03:46;93865.97;;;18.21;53.15
6038;BME280;3047;42.600;23.470;2022-10-16T11:06:24;93861.78;;;18.39;51.80
6038;BME280;3047;42.600;23.470;2022-10-16T11:08:57;93857.31;;;18.62;51.29
6038;BME280;3047;42.600;23.470;2022-10-16T11:11:30;93837.66;;;18.62;51.42
6038;BME280;3047;42.600;23.470;2022-10-16T11:14:02;93857.75;;;18.89;51.04
6038;BME280;3047;42.600;23.470;2022-10-16T11:16:34;93862.44;;;18.98;48.62
6038;BME280;3047;42.600;23.470;2022-10-16T11:19:08;93862.06;;;19.06;49.78
6038;BME280;3047;42.600;23.470;2022-10-16T11:21:44;93855.44;;;19.01;48.25
6038;BME280;3047;42.600;23.470;2022-10-16T11:24:18;93856.78;;;19.09;47.30
6038;BME280;3047;42.600;23.470;2022-10-16T11:26:46;93833.13;;;19.03;47.89
6038;BME280;3047;42.600;23.470;2022-10-16T11:29:17;93851.75;;;19.24;47.08
6038;BME280;3047;42.600;23.470;2022-10-16T11:31:48;93843.44;;;19.37;47.71
6038;BME280;3047;42.600;23.470;2022-10-16T11:34:22;93852.53;;;19.42;46.45
6038;BME280;3047;42.600;23.470;2022-10-16T11:36:56;93841.31;;;19.45;43.62
6038;BME280;3047;42.600;23.470;2022-10-16T11:39:26;93840.03;;;19.54;44.82
6038;BME280;3047;42.600;23.470;2022-10-16T11:41:56;93846.94;;;19.51;43.38
6038;BME280;3047;42.600;23.470;2022-10-16T11:44:35;93849.44;;;19.53;42.74
6038;BME280;3047;42.600;23.470;2022-10-16T11:47:12;93848.44;;;19.56;41.37
6038;BME280;3047;42.600;23.470;2022-10-16T11:49:43;93843.19;;;19.59;41.47
6038;BME280;3047;42.600;23.470;2022-10-16T11:52:17;93852.47;;;19.61;41.50
6038;BME280;3047;42.600;23.470;2022-10-16T11:54:51;93848.91;;;19.64;41.20
6038;BME280;3047;42.600;23.470;2022-10-16T11:57:23;93848.75;;;19.67;40.56
6038;BME280;3047;42.600;23.470;2022-10-16T11:59:53;93844.72;;;19.63;41.62
6038;BME280;3047;42.600;23.470;2022-10-16T12:02:46;93847.03;;;19.67;42.12
6038;BME280;3047;42.600;23.470;2022-10-16T12:05:23;93843.56;;;19.68;40.37
6038;BME280;3047;42.600;23.470;2022-10-16T12:07:59;93843.34;;;19.73;38.88
6038;BME280;3047;42.600;23.470;2022-10-16T12:10:29;93845.41;;;19.82;40.33
6038;BME280;3047;42.600;23.470;2022-10-16T12:13:02;93849.09;;;19.76;40.92
6038;BME280;3047;42.600;23.470;2022-10-16T12:15:30;93850.16;;;19.72;39.52
6038;BME280;3047;42.600;23.470;2022-10-16T12:17:57;93843.91;;;19.78;40.81
6038;BME280;3047;42.600;23.470;2022-10-16T12:20:27;93844.41;;;19.85;40.84
6038;BME280;3047;42.600;23.470;2022-10-16T12:22:59;93853.16;;;19.81;39.11
6038;BME280;3047;42.600;23.470;2022-10-16T12:25:29;93838.97;;;19.91;39.92
6038;BME280;3047;42.600;23.470;2022-10-16T12:28:01;93840.38;;;19.96;41.90
6038;BME280;3047;42.600;23.470;2022-10-16T12:30:31;93842.28;;;19.93;41.15
6038;BME280;3047;42.600;23.470;2022-10-16T12:33:00;93847.34;;;19.94;41.86
6038;BME280;3047;42.600;23.470;2022-10-16T12:35:30;93855.94;;;19.93;40.08
6038;BME280;3047;42.600;23.470;2022-10-16T12:38:07;93842.50;;;19.88;39.96
6038;BME280;3047;42.600;23.470;2022-10-16T12:40:37;93850.41;;;19.85;38.91
6038;BME280;3047;42.600;23.470;2022-10-16T12:43:26;93847.16;;;19.82;39.71
6038;BME280;3047;42.600;23.470;2022-10-16T12:46:01;93850.47;;;19.84;39.84
6038;BME280;3047;42.600;23.470;2022-10-16T12:48:29;93857.16;;;19.86;40.49
6038;BME280;3047;42.600;23.470;2022-10-16T12:50:56;93860.59;;;19.69;41.93
6038;BME280;3047;42.600;23.470;2022-10-16T12:53:26;93861.00;;;19.62;43.91
6038;BME280;3047;42.600;23.470;2022-10-16T12:56:03;93860.84;;;19.65;42.28
6038;BME280;3047;42.600;23.470;2022-10-16T12:58:53;93866.94;;;19.62;40.44
6038;BME280;3047;42.600;23.470;2022-10-16T13:01:33;93862.19;;;19.55;42.20
6038;BME280;3047;42.600;23.470;2022-10-16T13:04:13;93873.97;;;19.41;40.50
6038;BME280;3047;42.600;23.470;2022-10-16T13:06:46;93860.47;;;19.20;43.32
6038;BME280;3047;42.600;23.470;2022-10-16T13:09:40;93872.75;;;19.31;42.25
6038;BME280;3047;42.600;23.470;2022-10-16T13:12:35;93869.34;;;19.31;42.99
6038;BME280;3047;42.600;23.470;2022-10-16T13:15:22;93870.03;;;19.34;43.01
6038;BME280;3047;42.600;23.470;2022-10-16T13:17:59;93846.09;;;19.18;43.06
6038;BME280;3047;42.600;23.470;2022-10-16T13:20:33;93875.75;;;19.39;43.26
6038;BME280;3047;42.600;23.470;2022-10-16T13:23:09;93878.31;;;19.39;42.67
6038;BME280;3047;42.600;23.470;2022-10-16T13:25:50;93871.78;;;19.34;43.97